Antlers Park, Minnesota
Current Conditions -  °F | °C
As of 1:49 AM on Tuesday 21 Oct 2014 (Local Time) from KLVN Reporting Station
Clear Clear  
Wind Chill: 34°   Ceiling: Unl
Heat Index: 34°   Visibility: 7mi
Dew Point: 34°   Wind: 0mph
Humidity: 100%   Direction: NA
Pressure: 30.11"   Gusts: NA
Location:  44.6349°N, 93.283°W
Report Text: KLVN 210649Z AUTO 00000KT 7SM CLR 01/01 A3011 RMK AO2
Loading
Personal Weather Stations






























Interactive Weather Map
Tropical Storm Tracking
New forecast layout! Learn more

10-Day Weather Forecast

Advertisements
Track Severe Weather on mobile